createdAt,value
2023-02-09T00:06:30.231Z,38.67
2023-02-09T00:10:47.702Z,38.10
2023-02-09T00:15:06.292Z,44.35
2023-02-09T00:19:23.484Z,42.83
2023-02-09T00:27:57.852Z,40.73
2023-02-09T00:36:33.027Z,48.30
2023-02-09T00:40:50.256Z,44.05
2023-02-09T00:49:24.840Z,52.97
2023-02-09T00:53:42.043Z,55.22
2023-02-09T01:02:16.214Z,43.80
2023-02-09T01:10:50.538Z,47.50
2023-02-09T01:19:26.790Z,46.53
2023-02-09T01:23:44.689Z,45.45
2023-02-09T01:28:01.866Z,36.85
2023-02-09T01:36:36.208Z,36.08
2023-02-09T01:40:53.295Z,35.90
2023-02-09T01:49:51.880Z,39.25
2023-02-09T01:54:13.434Z,36.90
2023-02-09T01:58:31.874Z,36.22
2023-02-09T02:03:00.876Z,40.03
2023-02-09T02:07:28.044Z,40.38
2023-02-09T02:11:47.715Z,35.47
2023-02-09T02:16:45.558Z,41.20
2023-02-09T02:21:24.092Z,45.50
2023-02-09T02:26:07.563Z,41.88
2023-02-09T02:30:36.514Z,36.38
2023-02-09T02:35:06.273Z,44.83
2023-02-09T02:39:49.645Z,37.15
2023-02-09T02:44:11.261Z,44.47
2023-02-09T02:48:42.360Z,38.90
2023-02-09T02:53:03.189Z,40.15
2023-02-09T02:57:26.609Z,42.03
2023-02-09T03:01:51.843Z,37.63
2023-02-09T03:06:10.743Z,39.13
2023-02-09T03:10:36.805Z,44.13
2023-02-09T03:15:28.918Z,50.65
2023-02-09T03:20:05.461Z,44.97
2023-02-09T03:24:48.327Z,43.20
2023-02-09T03:29:08.252Z,54.60
2023-02-09T03:33:29.341Z,50.10
2023-02-09T03:37:46.430Z,44.80
2023-02-09T03:46:20.688Z,34.97
2023-02-09T03:50:38.135Z,44.03
2023-02-09T03:54:55.290Z,41.17
2023-02-09T04:03:29.519Z,41.87
2023-02-09T04:12:04.349Z,46.93
2023-02-09T04:16:21.513Z,45.08
2023-02-09T04:20:38.675Z,50.17
2023-02-09T04:24:55.787Z,43.63
2023-02-09T04:29:13.951Z,45.95
2023-02-09T04:33:31.188Z,43.90
2023-02-09T04:37:48.286Z,45.75
2023-02-09T04:42:05.441Z,42.03
2023-02-09T04:46:22.580Z,44.58
2023-02-09T04:50:40.205Z,54.05
2023-02-09T04:54:57.302Z,53.47
2023-02-09T04:59:33.200Z,48.67
2023-02-09T05:03:50.514Z,50.08
2023-02-09T05:08:08.384Z,46.50
2023-02-09T05:12:25.600Z,55.67
2023-02-09T05:16:42.766Z,45.90
2023-02-09T05:20:59.984Z,58.75
2023-02-09T05:25:17.339Z,50.13
2023-02-09T05:29:34.529Z,52.40
2023-02-09T05:33:51.697Z,47.83
2023-02-09T05:38:08.815Z,46.67
2023-02-09T05:42:27.491Z,45.72
2023-02-09T05:46:44.564Z,42.60
2023-02-09T05:55:18.733Z,48.87
2023-02-09T05:59:35.846Z,50.72
2023-02-09T06:08:09.944Z,45.53
2023-02-09T06:12:27.143Z,44.50
2023-02-09T06:16:44.860Z,48.75
2023-02-09T06:21:02.020Z,45.97
2023-02-09T06:25:19.136Z,47.00
2023-02-09T06:29:36.255Z,54.88
2023-02-09T06:33:53.483Z,50.50
2023-02-09T06:38:10.784Z,75.15
2023-02-09T06:42:43.740Z,62.00
2023-02-09T06:47:01.000Z,47.60
2023-02-09T06:51:18.337Z,50.13
2023-02-09T06:55:35.691Z,48.78
2023-02-09T06:59:52.802Z,47.88
2023-02-09T07:04:09.922Z,42.75
2023-02-09T07:08:27.034Z,49.25
2023-02-09T07:12:44.701Z,48.55
2023-02-09T07:17:01.836Z,59.83
2023-02-09T07:21:21.340Z,50.72
2023-02-09T07:25:38.454Z,88.25
2023-02-09T07:34:12.634Z,59.90
2023-02-09T07:42:46.779Z,48.50
2023-02-09T07:47:03.955Z,55.72
2023-02-09T07:51:25.458Z,51.17
2023-02-09T07:55:42.662Z,53.70
2023-02-09T07:59:59.846Z,56.85
2023-02-09T08:04:16.956Z,49.40
2023-02-09T08:08:34.053Z,48.88
2023-02-09T08:13:02.470Z,50.53
2023-02-09T08:17:20.749Z,47.35
2023-02-09T08:21:41.341Z,57.35
2023-02-09T08:26:02.066Z,53.10
2023-02-09T08:30:19.763Z,63.53
2023-02-09T08:34:36.888Z,49.33
2023-02-09T08:38:54.006Z,51.60
2023-02-09T08:43:12.388Z,47.58
2023-02-09T08:47:29.493Z,47.17
2023-02-09T08:51:46.646Z,47.75
2023-02-09T08:56:04.004Z,42.28
2023-02-09T09:00:21.445Z,47.28
2023-02-09T09:04:38.539Z,39.58
2023-02-09T09:08:55.643Z,39.53
2023-02-09T09:13:12.740Z,37.03
2023-02-09T09:17:30.139Z,38.83
2023-02-09T09:21:47.307Z,35.95
2023-02-09T09:26:04.740Z,34.83
2023-02-09T09:30:21.920Z,36.83
2023-02-09T09:34:39.755Z,42.80
2023-02-09T09:38:56.870Z,35.03
2023-02-09T09:43:25.672Z,34.05
2023-02-09T09:47:44.407Z,33.13
2023-02-09T09:52:13.378Z,33.63
2023-02-09T09:56:32.665Z,32.88
2023-02-09T10:00:51.313Z,33.42
2023-02-09T10:05:21.493Z,34.45
2023-02-09T10:09:44.447Z,28.50
2023-02-09T10:14:01.542Z,28.58
2023-02-09T10:18:25.202Z,26.60
2023-02-09T10:22:45.802Z,32.65
2023-02-09T10:27:25.618Z,29.60
2023-02-09T10:31:46.583Z,28.15
2023-02-09T10:36:06.747Z,23.75
2023-02-09T10:40:38.488Z,20.92
2023-02-09T10:44:58.291Z,22.75
2023-02-09T10:49:28.960Z,22.52
2023-02-09T10:54:07.614Z,41.22
2023-02-09T10:58:31.983Z,22.08
2023-02-09T11:02:55.247Z,20.58
2023-02-09T11:07:17.883Z,22.23
2023-02-09T11:11:40.111Z,25.15
2023-02-09T11:16:08.515Z,22.67
2023-02-09T11:20:35.494Z,24.07
2023-02-09T11:25:04.755Z,24.92
2023-02-09T11:29:35.160Z,25.27
2023-02-09T11:34:26.320Z,26.23
2023-02-09T11:38:57.921Z,31.52
2023-02-09T11:43:35.622Z,21.92
2023-02-09T11:48:26.583Z,20.60
2023-02-09T11:52:54.754Z,17.30
2023-02-09T11:57:30.332Z,16.03
2023-02-09T12:01:53.915Z,17.95
2023-02-09T12:06:11.669Z,14.57
2023-02-09T12:10:44.096Z,10.43
2023-02-09T12:15:26.274Z,11.13
2023-02-09T12:19:56.358Z,11.23
2023-02-09T12:24:33.107Z,10.65
2023-02-09T12:29:22.265Z,12.13
2023-02-09T12:34:00.557Z,10.80
2023-02-09T12:38:19.979Z,11.73
2023-02-09T12:42:39.466Z,13.18
2023-02-09T12:46:58.041Z,12.02
2023-02-09T12:56:11.546Z,10.88
2023-02-09T13:00:31.794Z,11.82
2023-02-09T13:05:11.561Z,11.90
2023-02-09T13:09:34.835Z,13.23
2023-02-09T13:14:05.871Z,10.98
2023-02-09T13:18:33.699Z,12.05
2023-02-09T13:23:18.719Z,11.88
2023-02-09T13:27:45.941Z,12.55
2023-02-09T13:32:05.830Z,15.05
2023-02-09T13:36:47.322Z,21.40
2023-02-09T13:41:06.243Z,18.42
2023-02-09T13:45:24.082Z,16.17
2023-02-09T13:49:41.736Z,13.00
2023-02-09T13:54:01.720Z,16.80
2023-02-09T13:58:36.537Z,20.10
2023-02-09T14:03:00.525Z,24.48
2023-02-09T14:07:18.997Z,21.90
2023-02-09T14:11:45.127Z,19.08
2023-02-09T14:16:09.654Z,15.65
2023-02-09T14:20:26.805Z,18.85
2023-02-09T14:24:44.076Z,14.75
2023-02-09T14:29:06.977Z,19.77
2023-02-09T14:33:24.957Z,14.02
2023-02-09T14:37:42.880Z,13.43
2023-02-09T14:42:07.722Z,18.75
2023-02-09T14:46:24.946Z,16.00
2023-02-09T14:50:42.129Z,15.50
2023-02-09T14:55:04.721Z,17.23
2023-02-09T14:59:22.985Z,17.23
2023-02-09T15:03:40.078Z,15.02
2023-02-09T15:08:05.690Z,15.77
2023-02-09T15:12:27.457Z,14.75
2023-02-09T15:16:44.574Z,15.80
2023-02-09T15:21:01.723Z,19.15
2023-02-09T15:25:18.825Z,18.33
2023-02-09T15:29:36.189Z,19.08
2023-02-09T15:33:53.525Z,15.07
2023-02-09T15:38:12.544Z,16.30
2023-02-09T15:42:48.623Z,26.10
2023-02-09T15:47:24.567Z,18.27
2023-02-09T15:51:42.233Z,21.55
2023-02-09T15:55:59.659Z,18.52
2023-02-09T16:00:18.652Z,17.80
2023-02-09T16:04:35.754Z,17.40
2023-02-09T16:08:53.935Z,22.48
2023-02-09T16:13:11.991Z,16.98
2023-02-09T16:17:29.132Z,22.27
2023-02-09T16:21:56.442Z,53.75
2023-02-09T16:26:13.605Z,98.45
2023-02-09T16:30:37.621Z,111.50
2023-02-09T16:34:57.755Z,74.95
2023-02-09T16:39:21.056Z,45.28
2023-02-09T16:43:38.164Z,37.10
2023-02-09T16:47:59.176Z,39.27
2023-02-09T16:52:20.677Z,31.17
2023-02-09T16:56:52.554Z,27.70
2023-02-09T17:01:18.572Z,32.55
2023-02-09T17:05:37.139Z,28.58
2023-02-09T17:09:55.938Z,30.20
2023-02-09T17:14:13.042Z,27.27
2023-02-09T17:18:42.384Z,29.20
2023-02-09T17:22:59.536Z,27.20
2023-02-09T17:27:16.630Z,28.87
2023-02-09T17:31:50.801Z,30.02
2023-02-09T17:36:25.616Z,25.90
2023-02-09T17:40:43.969Z,25.35
2023-02-09T17:45:01.761Z,24.07
2023-02-09T17:49:18.956Z,31.83
2023-02-09T17:53:36.040Z,27.63
2023-02-09T17:57:58.055Z,29.30
2023-02-09T18:02:19.675Z,28.63
2023-02-09T18:06:39.410Z,32.42
2023-02-09T18:10:58.562Z,33.58
2023-02-09T18:15:24.511Z,31.92
2023-02-09T18:19:41.731Z,35.42
2023-02-09T18:23:58.815Z,30.07
2023-02-09T18:28:16.905Z,35.80
2023-02-09T18:32:34.063Z,32.78
2023-02-09T18:36:51.334Z,28.00
2023-02-09T18:41:14.568Z,27.47
2023-02-09T18:45:32.146Z,32.20
2023-02-09T18:49:49.210Z,30.00
2023-02-09T18:54:06.364Z,27.23
2023-02-09T18:58:23.516Z,29.87
2023-02-09T19:02:43.116Z,25.20
2023-02-09T19:07:01.894Z,26.67
2023-02-09T19:11:21.399Z,23.42
2023-02-09T19:15:39.870Z,23.75
2023-02-09T19:19:58.153Z,26.88
2023-02-09T19:24:15.277Z,30.00
2023-02-09T19:28:32.815Z,27.93
2023-02-09T19:32:50.273Z,39.17
2023-02-09T19:37:08.724Z,31.67
2023-02-09T19:41:26.874Z,30.35
2023-02-09T19:45:44.043Z,45.70
2023-02-09T19:50:01.268Z,27.37
2023-02-09T19:54:18.718Z,29.23
2023-02-09T19:58:37.297Z,28.73
2023-02-09T20:02:54.539Z,29.70
2023-02-09T20:07:12.523Z,34.38
2023-02-09T20:15:46.838Z,29.75
2023-02-09T20:20:04.864Z,28.45
2023-02-09T20:28:39.889Z,34.45
2023-02-09T20:32:57.023Z,37.58
2023-02-09T20:37:14.141Z,33.40
2023-02-09T20:41:31.319Z,32.53
2023-02-09T20:46:07.345Z,32.13
2023-02-09T20:50:24.587Z,31.48
2023-02-09T20:54:41.723Z,29.77
2023-02-09T20:58:59.018Z,29.93
2023-02-09T21:03:16.145Z,39.20
2023-02-09T21:07:34.235Z,32.43
2023-02-09T21:16:09.778Z,31.92
2023-02-09T21:20:28.618Z,34.38
2023-02-09T21:24:45.817Z,34.70
2023-02-09T21:29:02.930Z,33.63
2023-02-09T21:33:20.045Z,35.57
2023-02-09T21:37:42.697Z,34.50
2023-02-09T21:42:18.530Z,32.72
2023-02-09T21:46:36.187Z,32.17
2023-02-09T21:50:53.370Z,34.83
2023-02-09T21:55:10.572Z,33.80
2023-02-09T21:59:28.513Z,35.63
2023-02-09T22:03:49.615Z,31.90
2023-02-09T22:08:06.902Z,36.10
2023-02-09T22:12:23.983Z,30.20
2023-02-09T22:16:41.287Z,31.63
2023-02-09T22:20:58.452Z,33.42
2023-02-09T22:25:15.594Z,31.00
2023-02-09T22:29:35.638Z,33.60
2023-02-09T22:33:54.056Z,35.90
2023-02-09T22:38:11.184Z,32.45
2023-02-09T22:42:28.281Z,29.70
2023-02-09T22:46:46.440Z,27.43
2023-02-09T22:51:03.677Z,29.60
2023-02-09T22:55:20.775Z,33.80
2023-02-09T22:59:37.938Z,29.33
2023-02-09T23:03:55.353Z,32.33
2023-02-09T23:08:12.496Z,33.33
2023-02-09T23:12:29.644Z,32.60
2023-02-09T23:16:47.209Z,31.20
2023-02-09T23:21:06.328Z,34.45
2023-02-09T23:25:24.376Z,29.33
2023-02-09T23:29:41.503Z,33.80
2023-02-09T23:33:58.676Z,33.67
2023-02-09T23:38:17.852Z,36.83
2023-02-09T23:42:34.941Z,36.08
2023-02-09T23:46:52.065Z,30.97
2023-02-09T23:51:12.762Z,32.17
2023-02-09T23:55:29.914Z,36.40
2023-02-09T23:59:47.109Z,35.57
